Time;durP1;ratioP1;P1;durP2;ratioP2;P2;SDS_P1;SDS_P2;PMS_P1;PMS_P2;Temp;Humidity;BMP_temperature;BMP_pressure;BME280_temperature;BME280_humidity;BME280_pressure;Samples;Min_cycle;Max_cycle;Signal;HPM_P1;HPM_P2
2022/11/23 00:01:34;;;;;;;18.40;12.45;;;4.50;99.90;;;;;;5090491;28;20056;-57
2022/11/23 00:04:21;;;;;;;22.42;14.10;;;4.50;99.90;;;;;;5074945;28;20036;-60
2022/11/23 00:07:07;;;;;;;20.80;13.63;;;4.60;99.90;;;;;;5073670;28;20534;-58
2022/11/23 00:09:53;;;;;;;21.13;12.77;;;4.60;99.90;;;;;;5089779;28;20601;-56
2022/11/23 00:12:47;;;;;;;19.85;13.00;;;4.60;99.90;;;;;;5080534;28;20408;-58
2022/11/23 00:15:34;;;;;;;21.85;13.35;;;4.60;99.90;;;;;;5070786;28;20016;-59
2022/11/23 00:18:22;;;;;;;23.35;13.48;;;4.60;99.90;;;;;;5063217;28;20137;-58
2022/11/23 00:21:12;;;;;;;21.75;13.23;;;4.60;99.90;;;;;;5094853;28;20483;-58
2022/11/23 00:23:58;;;;;;;21.38;12.82;;;4.60;99.90;;;;;;5070908;28;20043;-60
2022/11/23 00:26:44;;;;;;;17.83;12.48;;;4.70;99.90;;;;;;5070087;28;20043;-53
2022/11/23 00:29:30;;;;;;;21.58;12.68;;;4.70;99.90;;;;;;5075423;28;20036;-58
2022/11/23 00:32:19;;;;;;;18.52;13.30;;;4.60;99.90;;;;;;5088419;28;20063;-59
2022/11/23 00:35:05;;;;;;;21.65;12.57;;;4.60;99.90;;;;;;5091531;28;20036;-56
2022/11/23 00:37:51;;;;;;;17.85;11.20;;;4.60;99.90;;;;;;5070004;28;20454;-55
2022/11/23 00:40:37;;;;;;;17.33;12.32;;;4.60;99.90;;;;;;5073244;28;20043;-52
2022/11/23 00:43:27;;;;;;;22.08;11.07;;;4.70;99.90;;;;;;5090119;28;20028;-56
2022/11/23 00:46:25;;;;;;;19.77;11.98;;;4.70;99.90;;;;;;5071061;28;20028;-60
2022/11/23 00:49:11;;;;;;;20.10;11.57;;;4.70;99.90;;;;;;5055335;28;20025;-59
2022/11/23 00:51:57;;;;;;;21.25;12.82;;;4.70;99.90;;;;;;5089643;28;20040;-58
2022/11/23 00:54:42;;;;;;;21.90;12.88;;;4.80;99.90;;;;;;5063215;28;20032;-56
2022/11/23 00:57:33;;;;;;;22.20;11.40;;;4.80;99.90;;;;;;5070824;28;20035;-55
2022/11/23 01:00:21;;;;;;;19.60;11.52;;;4.70;99.90;;;;;;5085524;28;20028;-59
2022/11/23 01:03:08;;;;;;;17.60;11.57;;;4.80;99.90;;;;;;5101749;28;20049;-53
2022/11/23 01:06:01;;;;;;;17.20;11.98;;;4.80;99.90;;;;;;5095958;28;20024;-61
2022/11/23 01:08:49;;;;;;;19.48;11.38;;;4.80;99.90;;;;;;5077798;28;20040;-57
2022/11/23 01:11:35;;;;;;;22.10;12.68;;;4.80;99.90;;;;;;5093546;28;20484;-61
2022/11/23 01:14:22;;;;;;;16.08;11.73;;;4.70;99.90;;;;;;5089075;28;20500;-63
2022/11/23 01:17:09;;;;;;;22.75;12.07;;;4.80;99.90;;;;;;5074933;28;20051;-58
2022/11/23 01:19:58;;;;;;;22.45;12.50;;;4.80;99.90;;;;;;5084327;28;20430;-56
2022/11/23 01:22:46;;;;;;;18.33;11.65;;;4.80;99.90;;;;;;5093657;28;20025;-60
2022/11/23 01:25:32;;;;;;;22.08;11.75;;;4.80;99.90;;;;;;5083891;28;20021;-60
2022/11/23 01:28:18;;;;;;;17.92;11.27;;;4.90;99.90;;;;;;5089710;28;20028;-61
2022/11/23 01:31:19;;;;;;;17.80;10.55;;;4.90;99.90;;;;;;5060395;28;20103;-58
2022/11/23 01:34:05;;;;;;;17.25;10.38;;;5.00;99.90;;;;;;5081824;28;20021;-59
2022/11/23 01:36:52;;;;;;;19.05;10.80;;;5.00;99.90;;;;;;5084972;28;20062;-60
2022/11/23 01:39:41;;;;;;;16.20;10.65;;;5.00;99.90;;;;;;5083714;28;20024;-62
2022/11/23 01:43:00;;;;;;;15.35;10.75;;;5.00;99.90;;;;;;5081279;28;20107;-59
2022/11/23 01:45:52;;;;;;;18.02;10.57;;;5.00;99.90;;;;;;5044283;28;20500;-58
2022/11/23 01:48:43;;;;;;;16.70;10.70;;;5.10;99.90;;;;;;5085951;28;20517;-56
2022/11/23 01:51:38;;;;;;;15.52;10.63;;;5.10;99.90;;;;;;5084282;28;20103;-57
2022/11/23 01:54:31;;;;;;;16.83;10.52;;;5.10;99.90;;;;;;5082144;28;20124;-58
2022/11/23 01:57:24;;;;;;;15.13;10.48;;;5.10;99.90;;;;;;5081898;28;20100;-55
2022/11/23 02:00:12;;;;;;;19.13;11.88;;;5.10;99.90;;;;;;5082845;28;20032;-59
2022/11/23 02:02:59;;;;;;;17.80;11.50;;;5.10;99.90;;;;;;5082691;28;20024;-59
2022/11/23 02:05:58;;;;;;;17.20;11.40;;;5.10;99.90;;;;;;5083190;28;20031;-59
2022/11/23 02:08:47;;;;;;;18.75;11.50;;;5.10;99.90;;;;;;5054550;28;20024;-55
2022/11/23 02:11:33;;;;;;;13.55;10.73;;;5.10;99.90;;;;;;5084402;28;20028;-61
2022/11/23 02:14:21;;;;;;;17.33;11.05;;;5.10;99.90;;;;;;5079917;28;20530;-60
2022/11/23 02:17:08;;;;;;;17.35;10.32;;;5.20;99.90;;;;;;5083298;28;20037;-57
2022/11/23 02:20:09;;;;;;;20.85;14.05;;;5.20;99.90;;;;;;5082984;28;20485;-58
2022/11/23 02:23:03;;;;;;;18.40;11.32;;;5.20;99.90;;;;;;5086285;28;20020;-58
2022/11/23 02:26:09;;;;;;;18.10;11.20;;;5.20;99.90;;;;;;5095108;28;20023;-56
2022/11/23 02:29:19;;;;;;;16.45;12.30;;;5.20;99.90;;;;;;5087696;28;20438;-62
2022/11/23 02:32:05;;;;;;;15.65;11.15;;;5.20;99.90;;;;;;5097753;28;20031;-57
2022/11/23 02:34:51;;;;;;;15.00;11.38;;;5.20;99.90;;;;;;5072172;28;20055;-58
2022/11/23 02:37:40;;;;;;;18.50;12.50;;;5.20;99.90;;;;;;5071057;28;20025;-56
2022/11/23 02:40:31;;;;;;;18.92;11.05;;;5.10;99.90;;;;;;5073005;28;20036;-60
2022/11/23 02:43:17;;;;;;;17.63;11.40;;;5.10;99.90;;;;;;5082510;28;20153;-59
2022/11/23 02:46:04;;;;;;;15.52;10.98;;;5.10;99.90;;;;;;5091752;28;20126;-57
2022/11/23 02:48:50;;;;;;;22.58;12.70;;;5.20;99.90;;;;;;5063511;28;20052;-57
2022/11/23 02:51:36;;;;;;;16.30;11.55;;;5.10;99.90;;;;;;5058142;28;20083;-58
2022/11/23 02:54:22;;;;;;;18.75;12.45;;;5.20;99.90;;;;;;5076040;28;20032;-59
2022/11/23 02:57:08;;;;;;;17.13;11.68;;;5.20;99.90;;;;;;5091526;28;20085;-59
2022/11/23 02:59:54;;;;;;;18.52;12.52;;;5.20;99.90;;;;;;5086774;28;20028;-60
2022/11/23 03:02:40;;;;;;;18.60;11.63;;;5.20;99.90;;;;;;5071308;28;20035;-60
2022/11/23 03:05:29;;;;;;;21.02;12.35;;;5.20;99.90;;;;;;5057461;28;20043;-61
2022/11/23 03:08:15;;;;;;;20.45;12.65;;;5.30;99.90;;;;;;5092645;28;20024;-59
2022/11/23 03:11:01;;;;;;;19.00;11.77;;;5.30;99.90;;;;;;5090748;28;20032;-55
2022/11/23 03:13:47;;;;;;;20.13;11.90;;;5.40;99.90;;;;;;5076773;28;20039;-59
2022/11/23 03:16:35;;;;;;;17.70;11.07;;;5.40;99.90;;;;;;5066398;28;20098;-59
2022/11/23 03:19:21;;;;;;;17.05;11.25;;;5.40;99.90;;;;;;5057157;28;20056;-59
2022/11/23 03:22:08;;;;;;;16.17;10.68;;;5.40;99.90;;;;;;5085681;28;20486;-62
2022/11/23 03:24:57;;;;;;;16.00;11.52;;;5.40;99.90;;;;;;5076639;28;20066;-59
2022/11/23 03:27:48;;;;;;;16.25;10.40;;;5.40;99.90;;;;;;5071483;28;20382;-59
2022/11/23 03:30:35;;;;;;;21.85;12.27;;;5.40;99.90;;;;;;5072088;28;20040;-58
2022/11/23 03:33:21;;;;;;;18.20;12.00;;;5.40;99.90;;;;;;5072993;28;20028;-58
2022/11/23 03:36:09;;;;;;;16.38;10.98;;;5.30;99.90;;;;;;5071718;28;20032;-59
2022/11/23 03:38:56;;;;;;;16.73;10.85;;;5.30;99.90;;;;;;5072316;28;20074;-60
2022/11/23 03:41:42;;;;;;;16.92;10.90;;;5.30;99.90;;;;;;5063324;28;20115;-62
2022/11/23 03:44:28;;;;;;;18.33;11.15;;;5.30;99.90;;;;;;5090666;28;20057;-62
2022/11/23 03:47:15;;;;;;;15.88;11.13;;;5.30;99.90;;;;;;5080255;28;20408;-62
2022/11/23 03:50:01;;;;;;;18.00;11.80;;;5.30;99.90;;;;;;5056406;28;20032;-59
2022/11/23 03:52:48;;;;;;;17.25;10.43;;;5.30;99.90;;;;;;5060593;28;20044;-60
2022/11/23 03:55:35;;;;;;;17.88;11.10;;;5.30;99.90;;;;;;5057070;28;20432;-59
2022/11/23 03:58:23;;;;;;;17.05;11.32;;;5.30;99.90;;;;;;5071906;28;20108;-59
2022/11/23 04:01:09;;;;;;;17.90;11.18;;;5.20;99.90;;;;;;5069694;28;20037;-60
2022/11/23 04:03:55;;;;;;;17.58;11.85;;;5.20;99.90;;;;;;5071064;28;20059;-62
2022/11/23 04:06:44;;;;;;;17.65;11.57;;;5.20;99.90;;;;;;5071177;28;20032;-59
2022/11/23 04:09:31;;;;;;;16.08;11.30;;;5.20;99.90;;;;;;5071983;28;20035;-58
2022/11/23 04:12:18;;;;;;;18.30;11.43;;;5.10;99.90;;;;;;5089925;28;20111;-58
2022/11/23 04:15:06;;;;;;;18.48;11.73;;;5.10;99.90;;;;;;5085285;28;20089;-61
2022/11/23 04:17:54;;;;;;;16.80;11.32;;;5.10;99.90;;;;;;5071269;28;20657;-59
2022/11/23 04:20:40;;;;;;;19.35;12.05;;;5.10;99.90;;;;;;5079091;28;20044;-60
2022/11/23 04:23:27;;;;;;;17.45;11.68;;;5.10;99.90;;;;;;5070584;28;20046;-60
2022/11/23 04:26:14;;;;;;;14.18;11.57;;;5.00;99.90;;;;;;5056219;28;20508;-61
2022/11/23 04:29:03;;;;;;;21.17;13.82;;;5.10;99.90;;;;;;5056436;28;20039;-61
2022/11/23 04:31:49;;;;;;;15.15;11.48;;;5.00;99.90;;;;;;5072652;28;20166;-59
2022/11/23 04:34:37;;;;;;;23.52;12.52;;;5.00;99.90;;;;;;5070126;28;20175;-58
2022/11/23 04:37:24;;;;;;;19.95;12.35;;;5.00;99.90;;;;;;5057209;28;20043;-60
2022/11/23 04:40:11;;;;;;;18.67;13.30;;;5.00;99.90;;;;;;5062796;28;20029;-57
2022/11/23 04:42:57;;;;;;;16.60;11.38;;;5.00;99.90;;;;;;5094770;28;20030;-59
2022/11/23 04:45:44;;;;;;;17.75;11.63;;;5.00;99.90;;;;;;5087203;28;20096;-61
2022/11/23 04:48:30;;;;;;;17.85;13.00;;;5.00;99.90;;;;;;5075542;28;20033;-61
2022/11/23 04:51:17;;;;;;;19.58;12.20;;;5.10;99.90;;;;;;5069429;28;20024;-60
2022/11/23 04:54:04;;;;;;;17.80;11.38;;;5.10;99.90;;;;;;5083863;28;20036;-59
2022/11/23 04:56:50;;;;;;;21.35;12.45;;;5.10;99.90;;;;;;5075327;28;20069;-60
2022/11/23 04:59:35;;;;;;;17.45;11.43;;;5.10;99.90;;;;;;5087853;28;20529;-60
2022/11/23 05:02:22;;;;;;;16.80;11.10;;;5.10;99.90;;;;;;5093403;28;20078;-62
2022/11/23 05:05:08;;;;;;;19.50;11.90;;;5.20;99.90;;;;;;5076293;28;20043;-59
2022/11/23 05:07:56;;;;;;;18.60;12.15;;;5.20;99.90;;;;;;5075068;28;20487;-60
2022/11/23 05:10:42;;;;;;;16.42;12.20;;;5.20;99.90;;;;;;5075512;28;20558;-62
2022/11/23 05:13:29;;;;;;;18.38;11.82;;;5.20;99.90;;;;;;5076502;28;20028;-60
2022/11/23 05:16:15;;;;;;;19.45;12.13;;;5.20;99.90;;;;;;5079634;28;20039;-60
2022/11/23 05:19:02;;;;;;;20.02;12.40;;;5.10;99.90;;;;;;5087587;28;20028;-61
2022/11/23 05:21:48;;;;;;;19.02;12.07;;;5.10;99.90;;;;;;5074588;28;20028;-61
2022/11/23 05:24:35;;;;;;;20.30;11.93;;;5.10;99.90;;;;;;5083456;28;20024;-63
2022/11/23 05:27:21;;;;;;;17.65;11.75;;;5.10;99.90;;;;;;5093315;28;20048;-61
2022/11/23 05:30:08;;;;;;;16.30;12.65;;;5.10;99.90;;;;;;5079156;28;20068;-61
2022/11/23 05:33:02;;;;;;;20.08;12.02;;;5.10;99.90;;;;;;5074674;28;20473;-61
2022/11/23 05:35:49;;;;;;;23.52;13.27;;;5.00;99.90;;;;;;5100010;28;20484;-57
2022/11/23 05:38:35;;;;;;;18.80;11.32;;;5.10;99.90;;;;;;5093327;28;20102;-63
2022/11/23 05:41:23;;;;;;;18.35;12.35;;;5.00;99.90;;;;;;5072650;28;20056;-63
2022/11/23 05:44:09;;;;;;;20.42;12.20;;;5.10;99.90;;;;;;5078204;28;20024;-60
2022/11/23 05:46:56;;;;;;;17.48;11.77;;;5.10;99.90;;;;;;5092960;28;20637;-57
2022/11/23 05:49:42;;;;;;;18.15;12.02;;;5.10;99.90;;;;;;5084687;28;20414;-59
2022/11/23 05:52:29;;;;;;;18.88;12.95;;;5.10;99.90;;;;;;5084265;28;20068;-58
2022/11/23 05:55:16;;;;;;;26.20;13.45;;;5.10;99.90;;;;;;5096253;28;20028;-60
2022/11/23 05:58:04;;;;;;;18.33;12.88;;;5.10;99.90;;;;;;5088131;28;20031;-58
2022/11/23 06:00:55;;;;;;;20.95;13.40;;;5.10;99.90;;;;;;5092044;28;20553;-58
2022/11/23 06:03:42;;;;;;;19.55;13.07;;;5.00;99.90;;;;;;5090757;28;20063;-58
2022/11/23 06:06:29;;;;;;;17.35;12.30;;;5.10;99.90;;;;;;5081175;28;20110;-59
2022/11/23 06:09:15;;;;;;;20.27;12.25;;;5.10;99.90;;;;;;5081871;28;20532;-60
2022/11/23 06:12:01;;;;;;;18.50;13.20;;;5.10;99.90;;;;;;5073342;28;20032;-56
2022/11/23 06:14:47;;;;;;;17.98;12.35;;;5.20;99.90;;;;;;5058700;28;20036;-60
2022/11/23 06:17:34;;;;;;;18.40;13.43;;;5.20;99.90;;;;;;5081429;28;20032;-58
2022/11/23 06:20:20;;;;;;;22.80;14.25;;;5.20;99.90;;;;;;5073238;28;20064;-61
2022/11/23 06:23:08;;;;;;;17.58;12.93;;;5.20;99.90;;;;;;5073824;28;20028;-60
2022/11/23 06:25:59;;;;;;;24.50;14.77;;;5.20;99.90;;;;;;5075533;28;20305;-58
2022/11/23 06:28:46;;;;;;;22.63;14.05;;;5.20;99.90;;;;;;5089240;28;20029;-59
2022/11/23 06:31:32;;;;;;;18.98;12.52;;;5.20;99.90;;;;;;5092085;28;20681;-59
2022/11/23 06:34:18;;;;;;;20.55;12.30;;;5.20;99.90;;;;;;5085166;28;20082;-59
2022/11/23 06:37:06;;;;;;;16.45;11.95;;;5.10;99.90;;;;;;5058687;28;20687;-60
2022/11/23 06:39:52;;;;;;;19.98;12.32;;;5.20;99.90;;;;;;5073878;28;20551;-60
2022/11/23 06:42:38;;;;;;;21.98;12.32;;;5.20;99.90;;;;;;5057904;28;20020;-59
2022/11/23 06:45:26;;;;;;;29.25;12.65;;;5.20;99.90;;;;;;5087702;28;20031;-60
2022/11/23 06:48:14;;;;;;;20.10;11.55;;;5.30;99.90;;;;;;5091263;28;20053;-58
2022/11/23 06:51:02;;;;;;;25.35;13.68;;;5.30;99.90;;;;;;5099113;28;20032;-61
2022/11/23 06:53:48;;;;;;;25.17;13.27;;;5.20;99.90;;;;;;5080055;28;20035;-60
2022/11/23 06:56:34;;;;;;;18.02;12.18;;;5.20;99.90;;;;;;5102086;28;20128;-61
2022/11/23 06:59:20;;;;;;;18.13;13.00;;;5.20;99.90;;;;;;5099097;28;20435;-58
2022/11/23 07:02:08;;;;;;;24.70;13.63;;;5.20;99.90;;;;;;5090807;28;20020;-58
2022/11/23 07:04:54;;;;;;;18.40;11.77;;;5.20;99.90;;;;;;5061070;28;20043;-53
2022/11/23 07:07:40;;;;;;;15.25;11.77;;;5.20;99.90;;;;;;5055434;28;20104;-57
2022/11/23 07:10:27;;;;;;;18.80;12.43;;;5.20;99.90;;;;;;5069993;28;20035;-55
2022/11/23 07:13:15;;;;;;;21.80;13.13;;;5.30;99.90;;;;;;5071850;28;20033;-57
2022/11/23 07:16:02;;;;;;;20.98;12.35;;;5.30;99.90;;;;;;5071489;28;20121;-57
2022/11/23 07:18:49;;;;;;;18.45;12.45;;;5.40;99.90;;;;;;5089451;28;20032;-57
2022/11/23 07:21:36;;;;;;;20.10;12.60;;;5.40;99.90;;;;;;5095786;28;20077;-52
2022/11/23 07:24:23;;;;;;;16.00;11.35;;;5.50;99.90;;;;;;5090676;28;20084;-56
2022/11/23 07:27:10;;;;;;;17.75;11.82;;;5.50;99.90;;;;;;5076110;28;20428;-52
2022/11/23 07:29:56;;;;;;;18.20;10.68;;;5.50;99.90;;;;;;5080413;28;20079;-60
2022/11/23 07:32:42;;;;;;;16.73;11.45;;;5.50;99.90;;;;;;5087825;28;20099;-60
2022/11/23 07:35:29;;;;;;;24.10;13.73;;;5.60;99.90;;;;;;5085077;28;20036;-57
2022/11/23 07:38:15;;;;;;;22.17;11.55;;;5.60;99.90;;;;;;5087404;28;20032;-59
2022/11/23 07:41:02;;;;;;;19.50;11.30;;;5.60;99.90;;;;;;5095554;28;20381;-58
2022/11/23 07:43:49;;;;;;;19.67;11.35;;;5.70;99.90;;;;;;5090105;28;20021;-59
2022/11/23 07:46:36;;;;;;;17.15;11.40;;;5.70;99.90;;;;;;5090371;28;20048;-57
2022/11/23 07:49:25;;;;;;;16.98;11.02;;;5.70;99.90;;;;;;5071317;28;20055;-60
2022/11/23 07:52:11;;;;;;;19.35;11.77;;;5.80;99.90;;;;;;5077995;28;20071;-57
2022/11/23 07:54:59;;;;;;;22.42;12.82;;;5.80;99.90;;;;;;5101331;28;20020;-56
2022/11/23 07:57:52;;;;;;;22.52;11.77;;;5.70;99.90;;;;;;5080926;28;20035;-57
2022/11/23 08:00:39;;;;;;;21.17;12.63;;;5.70;99.90;;;;;;5085329;28;20031;-58
2022/11/23 08:03:25;;;;;;;21.98;11.90;;;5.80;99.90;;;;;;5083717;28;20118;-58
2022/11/23 08:06:13;;;;;;;19.98;12.02;;;5.80;99.90;;;;;;5072503;28;20446;-59
2022/11/23 08:08:59;;;;;;;20.67;11.43;;;5.90;99.90;;;;;;5083390;28;20024;-58
2022/11/23 08:11:46;;;;;;;19.83;12.45;;;5.90;99.90;;;;;;5088290;28;20032;-59
2022/11/23 08:14:32;;;;;;;29.15;18.98;;;6.00;99.90;;;;;;5090985;28;20500;-55
2022/11/23 08:17:19;;;;;;;22.38;13.07;;;6.00;99.90;;;;;;5075186;28;20036;-59
2022/11/23 08:20:06;;;;;;;24.40;12.50;;;6.00;99.90;;;;;;5072143;28;20039;-62
2022/11/23 08:22:54;;;;;;;24.52;13.18;;;6.10;99.90;;;;;;5072095;28;20021;-58
2022/11/23 08:25:42;;;;;;;22.85;12.90;;;6.10;99.90;;;;;;5071613;28;20024;-57
2022/11/23 08:28:28;;;;;;;22.92;11.98;;;6.20;99.90;;;;;;5056848;28;20032;-58
2022/11/23 08:31:14;;;;;;;21.95;12.57;;;6.20;99.90;;;;;;5082226;28;20081;-57
2022/11/23 08:34:02;;;;;;;16.10;11.75;;;6.30;99.90;;;;;;5056552;28;20029;-56
2022/11/23 08:36:49;;;;;;;25.92;13.95;;;6.40;99.90;;;;;;5093213;28;20032;-59
2022/11/23 08:39:37;;;;;;;24.33;14.98;;;6.40;99.90;;;;;;5089665;28;20033;-58
2022/11/23 08:42:23;;;;;;;23.33;13.25;;;6.40;99.90;;;;;;5074922;28;20073;-56
2022/11/23 08:45:11;;;;;;;25.77;14.63;;;6.40;99.90;;;;;;5090412;28;20056;-60
2022/11/23 08:48:02;;;;;;;22.15;13.23;;;6.40;99.90;;;;;;5070030;28;20029;-58
2022/11/23 08:50:48;;;;;;;26.88;13.43;;;6.50;99.90;;;;;;5087153;28;20396;-56
2022/11/23 08:53:36;;;;;;;37.53;17.30;;;6.60;99.90;;;;;;5083302;28;20048;-58
2022/11/23 08:56:23;;;;;;;34.45;15.50;;;6.50;99.90;;;;;;5074774;28;20073;-56
2022/11/23 08:59:13;;;;;;;32.03;15.68;;;6.60;99.90;;;;;;5070611;28;20036;-57
2022/11/23 09:02:01;;;;;;;32.85;13.88;;;6.70;99.90;;;;;;5085489;28;20024;-58
2022/11/23 09:04:49;;;;;;;32.35;15.45;;;6.70;99.90;;;;;;5058972;28;20025;-53
2022/11/23 09:07:35;;;;;;;29.50;17.55;;;6.80;99.90;;;;;;5084243;28;20017;-58
2022/11/23 09:10:21;;;;;;;22.38;14.75;;;6.80;99.90;;;;;;5083189;28;20031;-59
2022/11/23 09:13:08;;;;;;;21.75;14.45;;;6.90;99.90;;;;;;5081405;28;20027;-60
2022/11/23 09:16:01;;;;;;;26.27;17.45;;;6.90;99.90;;;;;;5100356;28;20085;-55
2022/11/23 09:18:48;;;;;;;27.00;19.88;;;7.00;99.90;;;;;;5093184;28;20051;-59
2022/11/23 09:21:37;;;;;;;30.90;21.58;;;7.00;99.90;;;;;;5076167;28;20058;-65
2022/11/23 09:24:25;;;;;;;36.83;27.27;;;7.10;99.90;;;;;;5040998;28;20103;-55
2022/11/23 09:27:10;;;;;;;33.92;27.38;;;7.10;99.90;;;;;;5079043;28;20028;-51
2022/11/23 09:29:59;;;;;;;30.95;26.20;;;7.20;99.90;;;;;;5074140;28;20112;-54
2022/11/23 09:32:46;;;;;;;36.20;28.27;;;7.30;99.90;;;;;;5082220;28;20035;-52
2022/11/23 09:35:33;;;;;;;32.80;21.55;;;7.40;99.90;;;;;;5081442;28;20020;-56
2022/11/23 09:38:18;;;;;;;29.10;21.92;;;7.50;99.90;;;;;;5086393;28;20028;-56
2022/11/23 09:41:23;;;;;;;24.20;19.17;;;7.60;99.90;;;;;;5069184;28;20090;-56
2022/11/23 09:44:51;;;;;;;26.95;18.70;;;7.60;99.90;;;;;;5082496;28;20020;-52
2022/11/23 09:47:50;;;;;;;27.35;18.50;;;7.60;99.90;;;;;;5083549;28;20021;-54
2022/11/23 09:50:52;;;;;;;22.17;15.05;;;7.80;99.90;;;;;;5082415;28;20511;-58
2022/11/23 09:53:51;;;;;;;27.02;16.33;;;7.90;99.90;;;;;;5070528;28;20035;-58
2022/11/23 09:56:40;;;;;;;26.15;16.35;;;7.90;99.90;;;;;;5082778;28;20489;-59
2022/11/23 09:59:40;;;;;;;25.10;13.48;;;8.00;99.90;;;;;;5068426;28;20020;-55
2022/11/23 10:02:28;;;;;;;21.45;12.00;;;8.00;99.90;;;;;;5086852;28;20059;-58
2022/11/23 10:05:27;;;;;;;20.23;9.85;;;8.00;99.90;;;;;;5084407;28;20060;-54
2022/11/23 10:08:44;;;;;;;20.17;9.35;;;8.10;99.90;;;;;;5085615;28;20031;-51
2022/11/23 10:12:08;;;;;;;28.58;10.65;;;8.20;99.90;;;;;;5111727;28;20023;-60
2022/11/23 10:15:14;;;;;;;26.83;13.43;;;8.40;99.90;;;;;;5103334;28;20045;-58
2022/11/23 10:18:38;;;;;;;12.13;7.45;;;8.40;99.90;;;;;;5097517;28;20027;-60
2022/11/23 10:22:12;;;;;;;16.33;7.43;;;8.30;99.90;;;;;;5050677;28;20054;-56
2022/11/23 10:25:02;;;;;;;12.50;6.47;;;8.40;99.90;;;;;;5116864;28;20027;-58
2022/11/23 10:27:50;;;;;;;13.07;6.43;;;8.50;99.90;;;;;;5105296;28;20034;-60
2022/11/23 10:30:36;;;;;;;15.00;7.30;;;8.60;99.90;;;;;;5112963;28;20395;-60
2022/11/23 10:33:35;;;;;;;17.65;7.50;;;8.50;99.90;;;;;;5105763;28;20032;-58
2022/11/23 10:36:21;;;;;;;11.13;6.28;;;8.50;99.90;;;;;;5093665;28;20024;-59
2022/11/23 10:39:22;;;;;;;15.30;7.28;;;8.50;99.90;;;;;;5103678;28;20455;-59
2022/11/23 10:42:23;;;;;;;13.77;6.25;;;8.50;99.90;;;;;;5111620;28;20030;-57
2022/11/23 10:45:40;;;;;;;16.05;7.25;;;8.60;99.90;;;;;;5097483;28;20484;-58
2022/11/23 10:48:35;;;;;;;12.18;5.45;;;8.60;99.90;;;;;;5106419;28;20032;-58
2022/11/23 10:51:31;;;;;;;;;;;8.70;99.90;;;;;;5113044;28;20152;-59
2022/11/23 10:54:45;;;;;;;16.40;5.70;;;8.70;99.90;;;;;;5111145;28;19915;-58
2022/11/23 10:57:35;;;;;;;15.70;6.20;;;8.80;99.90;;;;;;5098033;28;20028;-58
2022/11/23 11:00:23;;;;;;;12.10;6.38;;;8.80;99.90;;;;;;5111469;28;20051;-60
2022/11/23 11:03:22;;;;;;;15.02;5.80;;;8.80;99.90;;;;;;5110914;28;20069;-55
2022/11/23 11:06:09;;;;;;;18.90;6.63;;;9.00;99.90;;;;;;5111287;28;20023;-60
2022/11/23 11:08:56;;;;;;;14.35;5.32;;;9.20;99.90;;;;;;5096152;28;20161;-57
2022/11/23 11:11:47;;;;;;;12.20;4.85;;;9.20;99.90;;;;;;5095685;28;20024;-61
2022/11/23 11:14:33;;;;;;;11.55;5.68;;;9.20;99.90;;;;;;5111439;28;20039;-60
2022/11/23 11:17:29;;;;;;;10.70;5.45;;;9.20;99.90;;;;;;5095872;28;20030;-59
2022/11/23 11:20:26;;;;;;;10.60;5.22;;;9.10;99.90;;;;;;5111037;28;20484;-61
2022/11/23 11:23:19;;;;;;;13.98;5.72;;;9.10;99.90;;;;;;5112088;28;20118;-58
2022/11/23 11:26:29;;;;;;;12.23;4.88;;;9.20;99.90;;;;;;5111219;28;20099;-59
2022/11/23 11:29:33;;;;;;;12.13;5.22;;;9.10;99.90;;;;;;5074426;28;20082;-60
2022/11/23 11:32:53;;;;;;;14.65;5.18;;;9.10;99.90;;;;;;5091131;28;20035;-57
2022/11/23 11:35:47;;;;;;;8.68;5.30;;;9.10;99.90;;;;;;5091461;28;20020;-58
2022/11/23 11:38:36;;;;;;;9.23;4.40;;;9.10;99.90;;;;;;5090873;28;20063;-60
2022/11/23 11:41:24;;;;;;;10.05;5.05;;;9.10;99.90;;;;;;5091498;28;20027;-62
2022/11/23 11:44:23;;;;;;;12.35;5.25;;;9.10;99.90;;;;;;5090902;28;20392;-58
2022/11/23 11:47:32;;;;;;;13.13;5.05;;;9.20;99.90;;;;;;5075696;28;20404;-55
2022/11/23 11:50:25;;;;;;;11.73;5.65;;;9.20;99.90;;;;;;5090288;28;20036;-61
2022/11/23 11:53:15;;;;;;;9.93;5.40;;;9.20;99.90;;;;;;5075989;28;20115;-58
2022/11/23 11:56:21;;;;;;;11.55;5.18;;;9.20;99.90;;;;;;5075899;28;20111;-62
2022/11/23 11:59:19;;;;;;;14.30;5.47;;;9.20;99.90;;;;;;5090261;28;20488;-60
2022/11/23 12:02:26;;;;;;;13.10;5.30;;;9.20;99.90;;;;;;5091030;28;20024;-59
2022/11/23 12:05:38;;;;;;;12.35;5.10;;;9.20;99.90;;;;;;5075658;28;20484;-59
2022/11/23 12:08:34;;;;;;;10.38;5.50;;;9.30;99.90;;;;;;5090350;28;20111;-61
2022/11/23 12:11:21;;;;;;;10.82;6.40;;;9.30;99.90;;;;;;5090901;28;20045;-60
2022/11/23 12:14:11;;;;;;;10.30;4.88;;;9.40;99.90;;;;;;5075569;28;20484;-56
2022/11/23 12:17:05;;;;;;;11.48;5.55;;;9.40;99.90;;;;;;5090316;28;20028;-58
2022/11/23 12:19:57;;;;;;;12.05;5.93;;;9.50;99.90;;;;;;5091011;28;20020;-56
2022/11/23 12:22:52;;;;;;;13.48;5.50;;;9.50;99.90;;;;;;5091199;28;20017;-56
2022/11/23 12:25:47;;;;;;;11.82;4.85;;;9.50;99.90;;;;;;5091237;28;20027;-60
2022/11/23 12:28:55;;;;;;;12.57;5.40;;;9.60;99.90;;;;;;5091007;28;20103;-59
2022/11/23 12:31:47;;;;;;;19.38;5.72;;;9.60;99.90;;;;;;5091156;28;20024;-59
2022/11/23 12:34:55;;;;;;;12.90;4.47;;;9.80;99.90;;;;;;5091022;28;20020;-58
2022/11/23 12:38:03;;;;;;;14.93;5.45;;;9.90;99.90;;;;;;5090920;28;20046;-58
2022/11/23 12:41:20;;;;;;;12.45;5.32;;;9.90;99.90;;;;;;5090600;28;20016;-57
2022/11/23 12:44:36;;;;;;;11.88;4.85;;;9.90;99.90;;;;;;5090730;28;20028;-59
2022/11/23 12:47:46;;;;;;;15.70;5.00;;;9.90;99.90;;;;;;5091086;28;20019;-59
2022/11/23 12:50:44;;;;;;;12.38;4.97;;;9.80;99.90;;;;;;5090545;28;20515;-57
2022/11/23 12:53:49;;;;;;;20.00;5.40;;;9.90;99.90;;;;;;5075921;28;20034;-57
2022/11/23 12:57:06;;;;;;;16.93;5.97;;;10.00;99.90;;;;;;5090747;28;20020;-60
2022/11/23 13:00:00;;;;;;;9.43;4.70;;;10.00;99.90;;;;;;5078174;28;20053;-60
2022/11/23 13:03:14;;;;;;;15.00;5.10;;;10.10;99.90;;;;;;5094697;28;20099;-59
2022/11/23 13:06:21;;;;;;;11.60;4.70;;;10.10;99.90;;;;;;5093839;28;20028;-59
2022/11/23 13:09:29;;;;;;;15.23;4.70;;;10.10;99.90;;;;;;5094395;28;20042;-59
2022/11/23 13:12:33;;;;;;;10.57;4.35;;;10.00;99.90;;;;;;5093995;28;20031;-58
2022/11/23 13:15:19;;;;;;;12.90;5.38;;;10.00;99.90;;;;;;5078449;28;20036;-62
2022/11/23 13:18:26;;;;;;;8.63;4.40;;;10.10;99.90;;;;;;5094170;28;20098;-58
2022/11/23 13:21:29;;;;;;;9.45;3.83;;;10.30;99.90;;;;;;5093964;28;20537;-60
2022/11/23 13:24:30;;;;;;;9.00;4.20;;;10.60;99.90;;;;;;5094159;28;20089;-57
2022/11/23 13:27:16;;;;;;;11.60;4.68;;;10.70;99.90;;;;;;5078468;28;20396;-58
2022/11/23 13:30:20;;;;;;;9.45;4.35;;;10.80;99.90;;;;;;5093228;28;20028;-59
2022/11/23 13:33:15;;;;;;;14.45;5.00;;;10.80;99.90;;;;;;5093966;28;20492;-58
2022/11/23 13:36:01;;;;;;;14.25;5.75;;;10.80;99.90;;;;;;5078032;28;20024;-58
2022/11/23 13:38:47;;;;;;;13.20;4.63;;;10.90;99.90;;;;;;5064889;28;20040;-60
2022/11/23 13:41:33;;;;;;;23.70;7.03;;;11.10;99.90;;;;;;5093337;28;20434;-61
2022/11/23 13:44:25;;;;;;;16.75;5.50;;;11.40;99.90;;;;;;5077948;28;20026;-59
2022/11/23 13:47:14;;;;;;;18.20;5.57;;;11.70;99.80;;;;;;5078534;28;20107;-60
2022/11/23 13:50:18;;;;;;;11.40;5.07;;;12.40;99.20;;;;;;5093532;28;20020;-62
2022/11/23 13:53:21;;;;;;;9.43;5.00;;;12.60;98.00;;;;;;5077598;28;20487;-59
2022/11/23 13:56:31;;;;;;;18.20;5.97;;;12.90;98.00;;;;;;5093405;28;20430;-60
2022/11/23 13:59:26;;;;;;;17.55;7.85;;;13.60;96.80;;;;;;5078921;28;20488;-60
2022/11/23 14:02:12;;;;;;;16.27;6.50;;;14.10;96.10;;;;;;5093138;28;20075;-59
2022/11/23 14:05:29;;;;;;;13.43;5.68;;;14.30;95.10;;;;;;5093307;28;20496;-58
2022/11/23 14:08:17;;;;;;;20.83;6.20;;;14.60;94.10;;;;;;5093291;28;20035;-58
2022/11/23 14:11:14;;;;;;;29.70;8.38;;;14.40;94.50;;;;;;5076488;28;20024;-62
2022/11/23 14:14:04;;;;;;;22.35;6.53;;;13.70;94.80;;;;;;5093218;28;20370;-57
2022/11/23 14:17:01;;;;;;;19.33;6.40;;;13.10;95.90;;;;;;5092784;28;20029;-57
2022/11/23 14:19:56;;;;;;;17.55;5.65;;;13.50;95.70;;;;;;5092714;28;20054;-61
2022/11/23 14:23:13;;;;;;;14.40;5.57;;;14.00;94.90;;;;;;5093009;28;20027;-56
2022/11/23 14:26:52;;;;;;;13.55;5.40;;;13.50;94.60;;;;;;5076920;28;20415;-56
2022/11/23 14:30:16;;;;;;;11.45;5.22;;;12.60;96.00;;;;;;5062741;28;20106;-58
2022/11/23 14:33:15;;;;;;;13.23;4.75;;;11.50;97.90;;;;;;5092687;28;20017;-59
2022/11/23 14:36:14;;;;;;;10.48;4.85;;;11.00;98.80;;;;;;5092534;28;20066;-54
2022/11/23 14:39:27;;;;;;;15.50;5.90;;;10.70;99.80;;;;;;5092600;28;20049;-57
2022/11/23 14:42:17;;;;;;;13.90;6.20;;;10.50;99.90;;;;;;5091835;28;20024;-58
2022/11/23 14:45:05;;;;;;;15.18;5.40;;;10.30;99.90;;;;;;5092660;28;20028;-59